createdAt,value
2022-10-15T00:01:38.683Z,22.85
2022-10-15T00:04:05.942Z,24.52
2022-10-15T00:06:35.899Z,29.38
2022-10-15T00:09:07.266Z,27.08
2022-10-15T00:11:36.401Z,26.17
2022-10-15T00:14:03.845Z,30.15
2022-10-15T00:16:34.137Z,19.35
2022-10-15T00:19:03.988Z,26.87
2022-10-15T00:21:31.405Z,26.23
2022-10-15T00:24:01.713Z,25.13
2022-10-15T00:26:32.892Z,24.50
2022-10-15T00:29:08.954Z,25.85
2022-10-15T00:31:39.303Z,22.65
2022-10-15T00:34:06.859Z,24.48
2022-10-15T00:36:37.022Z,18.90
2022-10-15T00:39:06.949Z,22.00
2022-10-15T00:41:47.015Z,27.88
2022-10-15T00:44:32.711Z,26.23
2022-10-15T00:47:31.056Z,23.88
2022-10-15T00:50:07.883Z,24.95
2022-10-15T00:52:58.090Z,23.38
2022-10-15T00:55:32.006Z,27.98
2022-10-15T01:00:46.430Z,20.92
2022-10-15T01:03:14.842Z,27.45
2022-10-15T01:05:47.397Z,30.30
2022-10-15T01:08:21.974Z,23.08
2022-10-15T01:14:03.132Z,23.42
2022-10-15T01:17:05.812Z,29.75
2022-10-15T01:20:22.676Z,29.00
2022-10-15T01:23:15.426Z,26.05
2022-10-15T01:26:01.931Z,27.27
2022-10-15T01:28:42.139Z,24.40
2022-10-15T01:31:31.883Z,33.05
2022-10-15T01:34:30.470Z,28.42
2022-10-15T01:37:14.854Z,25.52
2022-10-15T01:40:01.350Z,24.35
2022-10-15T01:42:47.090Z,25.48
2022-10-15T01:45:25.814Z,29.02
2022-10-15T01:48:20.762Z,28.27
2022-10-15T01:50:55.330Z,26.73
2022-10-15T01:53:34.974Z,32.20
2022-10-15T01:56:21.120Z,25.83
2022-10-15T01:58:56.761Z,27.95
2022-10-15T02:01:25.368Z,27.50
2022-10-15T02:03:53.932Z,28.85
2022-10-15T02:06:23.864Z,30.38
2022-10-15T02:09:03.697Z,31.85
2022-10-15T02:11:45.176Z,23.08
2022-10-15T02:14:20.540Z,28.55
2022-10-15T02:16:56.400Z,37.85
2022-10-15T02:19:36.712Z,28.40
2022-10-15T02:22:14.611Z,31.58
2022-10-15T02:25:07.328Z,31.00
2022-10-15T02:27:39.926Z,36.42
2022-10-15T02:30:12.823Z,32.75
2022-10-15T02:32:42.305Z,30.85
2022-10-15T02:35:11.693Z,34.88
2022-10-15T02:37:47.939Z,30.73
2022-10-15T02:40:22.878Z,37.90
2022-10-15T02:42:52.328Z,34.03
2022-10-15T02:45:20.470Z,27.25
2022-10-15T02:47:48.301Z,29.70
2022-10-15T02:50:18.630Z,26.50
2022-10-15T02:52:45.742Z,27.85
2022-10-15T02:55:13.133Z,32.00
2022-10-15T02:57:40.892Z,32.33
2022-10-15T03:00:10.067Z,28.48
2022-10-15T03:02:42.005Z,30.60
2022-10-15T03:05:12.213Z,29.15
2022-10-15T03:07:40.976Z,29.05
2022-10-15T03:10:11.333Z,35.10
2022-10-15T03:12:41.760Z,27.20
2022-10-15T03:15:12.568Z,26.35
2022-10-15T03:17:42.404Z,27.27
2022-10-15T03:20:11.530Z,36.10
2022-10-15T03:22:39.804Z,32.83
2022-10-15T03:25:07.339Z,24.90
2022-10-15T03:27:34.903Z,28.25
2022-10-15T03:30:02.374Z,25.85
2022-10-15T03:32:36.462Z,30.60
2022-10-15T03:35:06.097Z,25.95
2022-10-15T03:37:33.958Z,31.98
2022-10-15T03:40:01.102Z,32.22
2022-10-15T03:42:28.260Z,27.70
2022-10-15T03:44:55.517Z,32.72
2022-10-15T03:47:22.921Z,31.35
2022-10-15T03:49:50.470Z,33.40
2022-10-15T03:52:18.159Z,33.65
2022-10-15T03:54:47.093Z,33.03
2022-10-15T03:57:17.679Z,28.17
2022-10-15T04:00:24.203Z,26.60
2022-10-15T04:03:04.203Z,25.85
2022-10-15T04:05:37.864Z,27.73
2022-10-15T04:08:10.742Z,26.90
2022-10-15T04:10:43.719Z,26.88
2022-10-15T04:13:16.770Z,32.50
2022-10-15T04:15:48.783Z,29.67
2022-10-15T04:18:18.437Z,28.13
2022-10-15T04:20:49.782Z,33.15
2022-10-15T04:23:22.304Z,29.17
2022-10-15T04:26:21.685Z,31.13
2022-10-15T04:28:50.001Z,35.53
2022-10-15T04:31:20.415Z,32.08
2022-10-15T04:34:00.772Z,28.40
2022-10-15T04:36:32.388Z,32.17
2022-10-15T04:39:13.812Z,33.10
2022-10-15T04:41:44.314Z,35.00
2022-10-15T04:47:10.504Z,38.00
2022-10-15T04:49:46.547Z,38.67
2022-10-15T04:52:57.477Z,35.05
2022-10-15T04:55:34.296Z,32.95
2022-10-15T04:58:06.055Z,38.10
2022-10-15T05:00:34.896Z,36.60
2022-10-15T05:03:24.815Z,42.15
2022-10-15T05:06:09.249Z,42.17
2022-10-15T05:08:55.242Z,37.55
2022-10-15T05:11:33.742Z,38.47
2022-10-15T05:14:09.038Z,41.35
2022-10-15T05:16:42.437Z,39.90
2022-10-15T05:19:19.725Z,45.85
2022-10-15T05:21:55.836Z,38.67
2022-10-15T05:24:40.151Z,43.05
2022-10-15T05:27:45.509Z,53.75
2022-10-15T05:30:19.717Z,51.60
2022-10-15T05:33:11.899Z,46.75
2022-10-15T05:35:50.349Z,52.20
2022-10-15T05:38:33.456Z,44.80
2022-10-15T05:41:05.643Z,57.92
2022-10-15T05:43:41.360Z,51.30
2022-10-15T05:46:29.726Z,50.28
2022-10-15T05:49:06.460Z,40.25
2022-10-15T05:51:48.026Z,45.97
2022-10-15T05:54:28.896Z,47.20
2022-10-15T05:57:09.424Z,54.92
2022-10-15T05:59:42.101Z,46.58
2022-10-15T06:02:19.981Z,42.97
2022-10-15T06:05:00.126Z,44.17
2022-10-15T06:07:37.452Z,41.95
2022-10-15T06:10:16.591Z,42.20
2022-10-15T06:13:01.434Z,38.85
2022-10-15T06:15:45.186Z,39.28
2022-10-15T06:18:30.606Z,41.03
2022-10-15T06:21:14.497Z,39.08
2022-10-15T06:26:46.538Z,39.22
2022-10-15T06:29:36.420Z,34.17
2022-10-15T06:32:19.773Z,44.92
2022-10-15T06:34:55.244Z,35.88
2022-10-15T06:37:35.991Z,37.80
2022-10-15T06:40:16.109Z,28.15
2022-10-15T06:45:47.227Z,29.58
2022-10-15T06:48:27.949Z,31.20
2022-10-15T06:51:02.722Z,30.75
2022-10-15T06:53:54.499Z,29.60
2022-10-15T06:56:33.841Z,30.90
2022-10-15T06:59:02.246Z,30.52
2022-10-15T07:01:38.594Z,36.63
2022-10-15T07:04:12.753Z,26.98
2022-10-15T07:06:51.872Z,30.23
2022-10-15T07:09:25.052Z,25.85
2022-10-15T07:11:54.686Z,24.88
2022-10-15T07:14:27.249Z,26.35
2022-10-15T07:16:58.228Z,21.40
2022-10-15T07:19:29.418Z,25.52
2022-10-15T07:21:59.674Z,28.23
2022-10-15T07:24:30.606Z,27.13
2022-10-15T07:26:58.312Z,22.77
2022-10-15T07:29:25.938Z,27.77
2022-10-15T07:31:58.954Z,26.67
2022-10-15T07:36:55.363Z,26.60
2022-10-15T07:39:23.469Z,30.45
2022-10-15T07:41:51.460Z,25.73
2022-10-15T07:44:21.532Z,22.13
2022-10-15T07:46:49.738Z,35.47
2022-10-15T07:49:17.404Z,22.83
2022-10-15T07:51:49.167Z,23.90
2022-10-15T07:54:25.621Z,27.08
2022-10-15T07:57:10.322Z,29.20
2022-10-15T07:59:41.538Z,27.80
2022-10-15T08:02:20.227Z,23.00
2022-10-15T08:04:48.818Z,25.10
2022-10-15T08:07:21.941Z,23.45
2022-10-15T08:09:52.368Z,27.20
2022-10-15T08:12:24.966Z,22.80
2022-10-15T08:14:54.029Z,20.10
2022-10-15T08:17:24.661Z,25.85
2022-10-15T08:23:01.253Z,16.83
2022-10-15T08:25:29.885Z,24.13
2022-10-15T08:28:00.484Z,22.70
2022-10-15T08:30:28.169Z,20.65
2022-10-15T08:32:59.206Z,23.10
2022-10-15T08:35:27.921Z,21.70
2022-10-15T08:38:00.456Z,18.50
2022-10-15T08:40:36.364Z,30.30
2022-10-15T08:43:05.774Z,20.70
2022-10-15T08:45:48.251Z,33.03
2022-10-15T08:49:03.629Z,21.90
2022-10-15T08:52:00.858Z,24.52
2022-10-15T08:54:32.820Z,19.92
2022-10-15T08:57:25.355Z,30.50
2022-10-15T09:00:07.842Z,21.27
2022-10-15T09:02:52.387Z,17.50
2022-10-15T09:06:28.288Z,26.35
2022-10-15T09:09:50.317Z,21.02
2022-10-15T09:15:57.829Z,28.95
2022-10-15T09:18:37.861Z,21.90
2022-10-15T09:21:34.704Z,26.88
2022-10-15T09:24:31.071Z,25.27
2022-10-15T09:28:04.472Z,29.23
2022-10-15T09:31:16.175Z,26.05
2022-10-15T09:34:09.609Z,28.00
2022-10-15T09:37:24.343Z,22.98
2022-10-15T09:40:33.612Z,24.95
2022-10-15T09:43:15.619Z,13.55
2022-10-15T09:45:47.254Z,11.20
2022-10-15T09:48:49.195Z,16.23
2022-10-15T09:51:34.760Z,15.27
2022-10-15T09:54:26.638Z,27.80
2022-10-15T09:57:14.311Z,18.48
2022-10-15T10:00:21.505Z,18.30
2022-10-15T10:03:17.831Z,17.55
2022-10-15T10:06:17.711Z,24.13
2022-10-15T10:09:29.898Z,19.08
2022-10-15T10:12:27.327Z,25.15
2022-10-15T10:18:32.831Z,22.70
2022-10-15T10:21:34.660Z,21.50
2022-10-15T10:24:39.450Z,12.38
2022-10-15T10:27:45.747Z,16.02
2022-10-15T10:30:52.434Z,16.10
2022-10-15T10:34:17.078Z,17.17
2022-10-15T10:37:30.355Z,21.95
2022-10-15T10:40:20.410Z,17.92
2022-10-15T10:43:28.192Z,23.02
2022-10-15T10:46:30.061Z,12.93
2022-10-15T10:49:20.666Z,21.77
2022-10-15T10:52:25.078Z,22.48
2022-10-15T10:55:23.162Z,15.38
2022-10-15T10:58:02.087Z,19.45
2022-10-15T11:00:56.006Z,19.50
2022-10-15T11:03:39.343Z,18.33
2022-10-15T11:06:34.079Z,15.85
2022-10-15T11:09:34.620Z,10.57
2022-10-15T11:12:38.272Z,13.02
2022-10-15T11:15:55.758Z,12.70
2022-10-15T11:19:13.630Z,14.25
2022-10-15T11:22:25.528Z,18.75
2022-10-15T11:25:32.820Z,12.55
2022-10-15T11:28:48.109Z,17.15
2022-10-15T11:32:17.209Z,21.15
2022-10-15T11:35:20.131Z,14.48
2022-10-15T11:41:32.375Z,13.60
2022-10-15T11:44:13.327Z,12.85
2022-10-15T11:47:02.155Z,11.07
2022-10-15T11:49:54.758Z,15.00
2022-10-15T11:52:43.701Z,12.63
2022-10-15T11:59:03.099Z,16.05
2022-10-15T12:02:30.277Z,6.97
2022-10-15T12:05:43.806Z,17.73
2022-10-15T12:08:18.876Z,11.38
2022-10-15T12:11:17.281Z,10.70
2022-10-15T12:14:12.804Z,12.82
2022-10-15T12:17:31.370Z,11.30
2022-10-15T12:20:24.427Z,10.18
2022-10-15T12:23:00.553Z,10.07
2022-10-15T12:25:44.646Z,18.08
2022-10-15T12:28:20.183Z,17.35
2022-10-15T12:30:57.045Z,17.48
2022-10-15T12:33:33.542Z,13.25
2022-10-15T12:36:28.906Z,10.38
2022-10-15T12:39:33.541Z,12.35
2022-10-15T12:42:34.111Z,8.45
2022-10-15T12:45:19.774Z,8.77
2022-10-15T12:48:08.884Z,8.07
2022-10-15T12:51:16.873Z,7.70
2022-10-15T12:54:11.487Z,8.02
2022-10-15T12:59:49.105Z,8.73
2022-10-15T13:02:56.735Z,12.65
2022-10-15T13:05:51.566Z,10.05
2022-10-15T13:09:41.597Z,7.57
2022-10-15T13:12:39.288Z,11.10
2022-10-15T13:15:32.395Z,9.88
2022-10-15T13:18:27.312Z,10.50
2022-10-15T13:21:31.026Z,11.93
2022-10-15T13:24:21.462Z,10.65
2022-10-15T13:27:01.406Z,8.98
2022-10-15T13:30:24.317Z,11.20
2022-10-15T13:33:46.130Z,13.25
2022-10-15T13:36:43.605Z,12.68
2022-10-15T13:39:37.247Z,12.73
2022-10-15T13:42:28.367Z,7.80
2022-10-15T13:45:23.321Z,14.68
2022-10-15T13:48:22.584Z,10.77
2022-10-15T13:51:24.344Z,8.05
2022-10-15T13:54:38.684Z,13.23
2022-10-15T13:57:35.112Z,11.32
2022-10-15T14:03:35.502Z,14.40
2022-10-15T14:06:47.577Z,13.45
2022-10-15T14:09:41.415Z,11.85
2022-10-15T14:12:24.895Z,13.15
2022-10-15T14:15:39.461Z,9.00
2022-10-15T14:18:30.564Z,13.27
2022-10-15T14:21:35.862Z,11.98
2022-10-15T14:27:18.085Z,20.02
2022-10-15T14:30:02.276Z,15.98
2022-10-15T14:33:05.684Z,12.10
2022-10-15T14:35:47.322Z,10.00
2022-10-15T14:38:29.010Z,16.10
2022-10-15T14:41:42.450Z,11.57
2022-10-15T14:44:27.232Z,15.07
2022-10-15T14:47:30.428Z,12.02
2022-10-15T14:50:07.876Z,21.15
2022-10-15T14:52:48.654Z,17.10
2022-10-15T14:55:37.365Z,21.27
2022-10-15T14:58:12.098Z,17.25
2022-10-15T15:00:58.499Z,14.38
2022-10-15T15:03:42.354Z,14.98
2022-10-15T15:06:20.228Z,18.25
2022-10-15T15:08:52.516Z,23.00
2022-10-15T15:11:28.113Z,20.58
2022-10-15T15:14:17.378Z,23.42
2022-10-15T15:17:07.682Z,16.55
2022-10-15T15:19:50.898Z,19.48
2022-10-15T15:22:47.933Z,19.60
2022-10-15T15:25:43.209Z,19.55
2022-10-15T15:28:39.309Z,15.65
2022-10-15T15:31:40.935Z,21.90
2022-10-15T15:35:08.967Z,16.02
2022-10-15T15:38:08.881Z,14.43
2022-10-15T15:41:06.366Z,21.63
2022-10-15T15:43:38.119Z,13.65
2022-10-15T15:46:21.231Z,15.88
2022-10-15T15:49:03.531Z,15.35
2022-10-15T15:51:55.049Z,14.52
2022-10-15T15:54:24.043Z,10.63
2022-10-15T15:57:02.637Z,14.82
2022-10-15T15:59:49.379Z,9.70
2022-10-15T16:02:32.959Z,18.02
2022-10-15T16:08:07.592Z,23.10
2022-10-15T16:10:42.880Z,17.38
2022-10-15T16:13:31.212Z,16.63
2022-10-15T16:16:06.987Z,22.67
2022-10-15T16:18:46.171Z,15.55
2022-10-15T16:21:36.986Z,19.45
2022-10-15T16:24:07.575Z,22.58
2022-10-15T16:26:48.226Z,21.17
2022-10-15T16:32:17.023Z,18.30
2022-10-15T16:34:57.269Z,12.10
2022-10-15T16:37:28.791Z,24.02
2022-10-15T16:40:39.449Z,13.27
2022-10-15T16:43:27.365Z,17.10
2022-10-15T16:46:10.409Z,13.95
2022-10-15T16:49:00.753Z,17.27
2022-10-15T16:51:48.995Z,19.55
2022-10-15T16:54:28.647Z,16.45
2022-10-15T16:57:03.875Z,19.48
2022-10-15T16:59:41.793Z,10.35
2022-10-15T17:03:07.862Z,16.20
2022-10-15T17:09:07.670Z,9.65
2022-10-15T17:12:00.920Z,19.67
2022-10-15T17:14:53.701Z,12.85
2022-10-15T17:17:41.460Z,20.13
2022-10-15T17:20:21.666Z,14.45
2022-10-15T17:22:54.177Z,16.25
2022-10-15T17:25:50.835Z,18.38
2022-10-15T17:28:34.634Z,20.42
2022-10-15T17:31:31.324Z,23.13
2022-10-15T17:37:14.148Z,11.60
2022-10-15T17:40:06.874Z,17.42
2022-10-15T17:42:49.600Z,17.97
2022-10-15T17:45:20.905Z,18.42
2022-10-15T17:48:07.843Z,19.85
2022-10-15T17:50:45.386Z,21.90
2022-10-15T17:53:23.027Z,15.13
2022-10-15T17:55:56.615Z,26.20
2022-10-15T18:02:12.709Z,19.23
2022-10-15T18:04:51.943Z,21.27
2022-10-15T18:10:02.143Z,17.98
2022-10-15T18:12:42.020Z,28.45
2022-10-15T18:18:05.970Z,20.45
2022-10-15T18:20:48.479Z,21.33
2022-10-15T18:23:25.220Z,20.92
2022-10-15T18:26:12.230Z,19.77
2022-10-15T18:28:50.882Z,26.85
2022-10-15T18:31:28.252Z,18.65
2022-10-15T18:34:02.728Z,17.77
2022-10-15T18:36:45.288Z,21.35
2022-10-15T18:39:14.067Z,24.40
2022-10-15T18:41:52.488Z,17.77
2022-10-15T18:44:30.159Z,15.38
2022-10-15T18:47:24.393Z,16.95
2022-10-15T18:52:39.957Z,21.75
2022-10-15T18:55:15.063Z,19.45
2022-10-15T18:58:03.015Z,26.08
2022-10-15T19:00:48.782Z,25.35
2022-10-15T19:03:28.891Z,18.48
2022-10-15T19:06:10.563Z,22.30
2022-10-15T19:08:45.367Z,19.05
2022-10-15T19:11:20.556Z,14.40
2022-10-15T19:13:58.603Z,14.15
2022-10-15T19:16:31.125Z,14.63
2022-10-15T19:19:16.931Z,13.88
2022-10-15T19:21:52.197Z,21.80
2022-10-15T19:24:35.691Z,15.05
2022-10-15T19:27:13.889Z,12.32
2022-10-15T19:29:50.064Z,14.85
2022-10-15T19:32:22.099Z,20.92
2022-10-15T19:34:59.268Z,16.73
2022-10-15T19:37:39.487Z,16.33
2022-10-15T19:40:12.151Z,18.95
2022-10-15T19:42:57.013Z,15.00
2022-10-15T19:45:39.724Z,12.50
2022-10-15T19:48:36.342Z,18.00
2022-10-15T19:51:07.829Z,17.20
2022-10-15T19:53:37.159Z,22.35
2022-10-15T19:56:20.457Z,20.00
2022-10-15T19:59:01.072Z,15.50
2022-10-15T20:01:34.545Z,13.75
2022-10-15T20:04:07.067Z,18.02
2022-10-15T20:06:41.290Z,17.63
2022-10-15T20:09:15.311Z,18.10
2022-10-15T20:11:50.759Z,19.83
2022-10-15T20:14:31.801Z,16.60
2022-10-15T20:17:07.573Z,15.95
2022-10-15T20:19:46.873Z,20.40
2022-10-15T20:22:27.784Z,14.82
2022-10-15T20:25:09.066Z,15.85
2022-10-15T20:27:44.512Z,20.10
2022-10-15T20:30:18.006Z,15.45
2022-10-15T20:32:51.612Z,22.00
2022-10-15T20:35:35.719Z,17.60
2022-10-15T20:38:07.725Z,18.30
2022-10-15T20:40:51.194Z,23.58
2022-10-15T20:43:22.771Z,33.78
2022-10-15T20:46:00.392Z,16.58
2022-10-15T20:48:45.299Z,17.58
2022-10-15T20:51:24.648Z,13.88
2022-10-15T20:54:04.664Z,19.35
2022-10-15T20:56:45.766Z,19.27
2022-10-15T20:59:17.913Z,15.35
2022-10-15T21:01:54.968Z,14.85
2022-10-15T21:04:22.459Z,22.58
2022-10-15T21:06:53.343Z,16.77
2022-10-15T21:09:25.215Z,18.55
2022-10-15T21:14:49.547Z,19.83
2022-10-15T21:17:29.230Z,13.73
2022-10-15T21:20:03.232Z,19.45
2022-10-15T21:22:42.128Z,17.02
2022-10-15T21:25:13.837Z,22.33
2022-10-15T21:27:48.455Z,15.73
2022-10-15T21:30:19.341Z,16.85
2022-10-15T21:32:48.431Z,16.50
2022-10-15T21:35:17.896Z,16.50
2022-10-15T21:37:46.229Z,13.82
2022-10-15T21:40:14.345Z,20.55
2022-10-15T21:42:42.571Z,15.25
2022-10-15T21:45:16.701Z,16.48
2022-10-15T21:47:48.051Z,15.57
2022-10-15T21:50:22.711Z,15.25
2022-10-15T21:52:50.946Z,13.48
2022-10-15T21:55:20.631Z,16.42
2022-10-15T21:57:49.008Z,14.30
2022-10-15T22:00:39.624Z,18.95
2022-10-15T22:03:17.315Z,12.75
2022-10-15T22:05:45.594Z,23.05
2022-10-15T22:08:15.024Z,14.20
2022-10-15T22:10:46.445Z,19.88
2022-10-15T22:13:18.708Z,17.25
2022-10-15T22:15:50.474Z,21.27
2022-10-15T22:18:24.627Z,13.00
2022-10-15T22:20:53.115Z,14.73
2022-10-15T22:23:27.760Z,15.57
2022-10-15T22:26:01.829Z,13.48
2022-10-15T22:28:30.071Z,12.55
2022-10-15T22:31:11.064Z,17.52
2022-10-15T22:33:48.682Z,11.68
2022-10-15T22:36:26.363Z,32.10
2022-10-15T22:39:16.741Z,12.40
2022-10-15T22:41:55.429Z,10.95
2022-10-15T22:44:24.255Z,13.00
2022-10-15T22:46:57.155Z,15.88
2022-10-15T22:49:26.978Z,16.40
2022-10-15T22:51:58.404Z,15.65
2022-10-15T22:54:26.607Z,17.95
2022-10-15T22:56:54.538Z,13.50
2022-10-15T22:59:23.785Z,15.75
2022-10-15T23:02:00.408Z,14.63
2022-10-15T23:04:28.062Z,17.27
2022-10-15T23:06:55.737Z,15.90
2022-10-15T23:09:26.933Z,13.25
2022-10-15T23:11:57.808Z,12.20
2022-10-15T23:14:28.905Z,17.15
2022-10-15T23:17:04.717Z,11.65
2022-10-15T23:19:32.909Z,15.15
2022-10-15T23:22:04.026Z,26.15
2022-10-15T23:24:31.584Z,19.33
2022-10-15T23:26:59.695Z,18.85
2022-10-15T23:29:33.076Z,22.85
2022-10-15T23:32:01.380Z,21.33
2022-10-15T23:34:30.168Z,21.50
2022-10-15T23:36:58.885Z,20.58
2022-10-15T23:39:30.406Z,16.48
2022-10-15T23:41:58.837Z,17.20
2022-10-15T23:44:36.215Z,22.30
2022-10-15T23:47:14.408Z,21.23
2022-10-15T23:49:58.155Z,23.58
2022-10-15T23:52:27.113Z,22.33
2022-10-15T23:55:08.596Z,21.20
2022-10-15T23:57:49.607Z,20.35
